createdAt,value
2023-05-10T00:04:44.143Z,4.184
2023-05-10T00:09:46.229Z,4.182
2023-05-10T00:14:48.206Z,4.182
2023-05-10T00:19:50.339Z,4.182
2023-05-10T00:24:51.892Z,4.182
2023-05-10T00:29:53.641Z,4.184
2023-05-10T00:34:55.570Z,4.184
2023-05-10T00:39:56.955Z,4.182
2023-05-10T00:44:58.985Z,4.184
2023-05-10T00:50:00.289Z,4.182
2023-05-10T00:55:01.994Z,4.182
2023-05-10T01:00:03.214Z,4.184
2023-05-10T01:05:04.642Z,4.182
2023-05-10T01:10:06.098Z,4.182
2023-05-10T01:15:07.646Z,4.182
2023-05-10T01:20:09.603Z,4.182
2023-05-10T01:25:10.889Z,4.182
2023-05-10T01:30:15.266Z,4.182
2023-05-10T01:35:14.396Z,4.182
2023-05-10T01:40:16.595Z,4.182
2023-05-10T01:45:18.365Z,4.182
2023-05-10T01:50:19.713Z,4.182
2023-05-10T01:55:21.520Z,4.182
2023-05-10T02:00:22.841Z,4.182
2023-05-10T02:05:24.882Z,4.182
2023-05-10T02:10:26.389Z,4.182
2023-05-10T02:15:27.901Z,4.182
2023-05-10T02:20:29.791Z,4.184
2023-05-10T02:25:31.146Z,4.184
2023-05-10T02:30:32.427Z,4.182
2023-05-10T02:35:33.844Z,4.182
2023-05-10T02:40:35.585Z,4.182
2023-05-10T02:45:37.746Z,4.182
2023-05-10T02:50:39.438Z,4.182
2023-05-10T02:55:40.753Z,4.182
2023-05-10T03:00:42.072Z,4.182
2023-05-10T03:05:43.805Z,4.182
2023-05-10T03:10:45.618Z,4.182
2023-05-10T03:15:47.270Z,4.182
2023-05-10T03:20:48.977Z,4.182
2023-05-10T03:25:50.937Z,4.182
2023-05-10T03:30:52.829Z,4.182
2023-05-10T03:35:54.022Z,4.182
2023-05-10T03:40:56.173Z,4.182
2023-05-10T03:45:58.222Z,4.184
2023-05-10T03:51:00.177Z,4.182
2023-05-10T03:56:01.363Z,4.182
2023-05-10T04:01:03.534Z,4.182
2023-05-10T04:06:05.238Z,4.182
2023-05-10T04:11:06.525Z,4.182
2023-05-10T04:16:08.275Z,4.182
2023-05-10T04:21:09.475Z,4.182
2023-05-10T04:26:11.264Z,4.182
2023-05-10T04:31:12.791Z,4.182
2023-05-10T04:36:14.217Z,4.182
2023-05-10T04:41:15.920Z,4.182
2023-05-10T04:46:17.563Z,4.182
2023-05-10T04:51:19.550Z,4.182
2023-05-10T04:56:20.900Z,4.182
2023-05-10T05:01:22.374Z,4.182
2023-05-10T05:06:24.068Z,4.182
2023-05-10T05:11:26.008Z,4.182
2023-05-10T05:16:28.052Z,4.184
2023-05-10T05:21:29.703Z,4.184
2023-05-10T05:26:31.416Z,4.184
2023-05-10T05:31:32.948Z,4.182
2023-05-10T05:36:36.492Z,4.184
2023-05-10T05:41:36.181Z,4.184
2023-05-10T05:46:37.508Z,4.184
2023-05-10T05:51:39.472Z,4.184
2023-05-10T05:56:41.134Z,4.184
2023-05-10T06:01:43.274Z,4.184
2023-05-10T06:06:44.668Z,4.184
2023-05-10T06:11:46.382Z,4.184
2023-05-10T06:16:48.540Z,4.184
2023-05-10T06:21:51.227Z,4.186
2023-05-10T06:26:51.645Z,4.184
2023-05-10T06:31:53.150Z,4.186
2023-05-10T06:36:54.388Z,4.186
2023-05-10T06:41:55.555Z,4.186
2023-05-10T06:46:56.957Z,4.186
2023-05-10T06:51:59.052Z,4.186
2023-05-10T06:57:02.510Z,4.188
2023-05-10T07:02:02.592Z,4.188
2023-05-10T07:07:04.081Z,4.188
2023-05-10T07:12:05.613Z,4.19
2023-05-10T07:17:07.102Z,4.19
2023-05-10T07:22:08.563Z,4.19
2023-05-10T07:27:09.885Z,4.192
2023-05-10T07:32:11.911Z,4.194
2023-05-10T07:37:13.592Z,4.196
2023-05-10T07:42:15.507Z,4.194
2023-05-10T07:47:16.889Z,4.192
2023-05-10T07:52:18.415Z,4.192
2023-05-10T07:57:20.094Z,4.192
2023-05-10T08:02:21.857Z,4.192
2023-05-10T08:07:23.661Z,4.192
2023-05-10T08:12:24.975Z,4.192
2023-05-10T08:17:26.863Z,4.192
2023-05-10T08:22:29.003Z,4.192
2023-05-10T08:27:30.194Z,4.192
2023-05-10T08:32:31.765Z,4.192
2023-05-10T08:37:33.886Z,4.192
2023-05-10T08:42:36.044Z,4.192
2023-05-10T08:47:37.272Z,4.192
2023-05-10T08:52:44.077Z,4.192
2023-05-10T08:57:41.073Z,4.192
2023-05-10T09:02:42.765Z,4.192
2023-05-10T09:07:44.858Z,4.192
2023-05-10T09:12:46.581Z,4.192
2023-05-10T09:17:48.792Z,4.192
2023-05-10T09:22:50.166Z,4.192
2023-05-10T09:27:51.587Z,4.19
2023-05-10T09:32:53.403Z,4.192
2023-05-10T09:37:54.577Z,4.192
2023-05-10T09:42:56.609Z,4.192
2023-05-10T09:47:58.470Z,4.192
2023-05-10T09:53:00.562Z,4.192
2023-05-10T09:58:02.116Z,4.192
2023-05-10T10:03:03.399Z,4.192
2023-05-10T10:08:04.653Z,4.192
2023-05-10T10:13:06.679Z,4.192
2023-05-10T10:18:08.817Z,4.192
2023-05-10T10:23:09.885Z,4.192
2023-05-10T10:28:11.605Z,4.192
2023-05-10T10:33:20.436Z,4.192
2023-05-10T10:38:14.791Z,4.192
2023-05-10T10:43:16.305Z,4.192
2023-05-10T10:48:23.826Z,4.192
2023-05-10T10:53:25.822Z,4.192
2023-05-10T10:58:27.194Z,4.192
2023-05-10T11:33:38.433Z,4.192
2023-05-10T11:38:40.312Z,4.192
2023-05-10T11:48:43.102Z,4.19
2023-05-10T11:58:45.915Z,4.19
2023-05-10T12:23:53.791Z,4.192
2023-05-10T12:33:56.491Z,4.192
2023-05-10T12:43:59.777Z,4.192
2023-05-10T12:49:08.858Z,4.192
2023-05-10T12:54:04.034Z,4.19
2023-05-10T12:59:05.457Z,4.192
2023-05-10T13:14:10.917Z,4.192
2023-05-10T13:34:18.877Z,4.192
2023-05-10T13:39:20.219Z,4.192
2023-05-10T13:44:22.143Z,4.192
2023-05-10T13:49:23.630Z,4.19
2023-05-10T13:54:25.228Z,4.192
2023-05-10T13:59:26.572Z,4.192
2023-05-10T14:04:28.518Z,4.192
2023-05-10T14:09:29.736Z,4.192
2023-05-10T14:14:31.672Z,4.192
2023-05-10T14:19:33.522Z,4.192
2023-05-10T14:24:34.752Z,4.192
2023-05-10T14:29:36.918Z,4.192
2023-05-10T14:34:38.919Z,4.192
2023-05-10T14:39:40.618Z,4.192
2023-05-10T14:44:42.613Z,4.192
2023-05-10T14:49:44.258Z,4.192
2023-05-10T14:54:46.399Z,4.192
2023-05-10T14:59:48.393Z,4.192
2023-05-10T15:04:50.276Z,4.192
2023-05-10T15:09:52.119Z,4.192
2023-05-10T15:14:54.227Z,4.192
2023-05-10T15:19:55.738Z,4.192
2023-05-10T15:24:57.887Z,4.192
2023-05-10T15:29:59.791Z,4.192
2023-05-10T15:35:01.141Z,4.192
2023-05-10T15:40:02.340Z,4.192
2023-05-10T15:45:04.143Z,4.192
2023-05-10T15:50:05.450Z,4.192
2023-05-10T15:55:06.990Z,4.192
2023-05-10T16:00:08.303Z,4.192
2023-05-10T16:05:09.486Z,4.192
2023-05-10T16:10:10.730Z,4.192
2023-05-10T16:15:12.674Z,4.192
2023-05-10T16:20:14.186Z,4.192
2023-05-10T16:25:16.090Z,4.192
2023-05-10T16:30:18.173Z,4.192
2023-05-10T16:35:20.053Z,4.192
2023-05-10T16:40:21.417Z,4.192
2023-05-10T16:45:23.165Z,4.192
2023-05-10T16:50:24.700Z,4.192
2023-05-10T16:55:26.574Z,4.192
2023-05-10T17:00:28.397Z,4.192
2023-05-10T17:05:30.149Z,4.192
2023-05-10T17:10:32.309Z,4.192
2023-05-10T17:15:34.302Z,4.192
2023-05-10T17:20:35.801Z,4.192
2023-05-10T17:25:37.415Z,4.192
2023-05-10T17:30:39.189Z,4.192
2023-05-10T17:35:41.167Z,4.192
2023-05-10T17:40:43.073Z,4.192
2023-05-10T17:45:45.092Z,4.192
2023-05-10T17:50:47.004Z,4.192
2023-05-10T17:55:48.662Z,4.192
2023-05-10T18:00:50.260Z,4.192
2023-05-10T18:05:52.179Z,4.192
2023-05-10T18:10:53.929Z,4.192
2023-05-10T18:15:55.826Z,4.192
2023-05-10T18:20:57.436Z,4.192
2023-05-10T18:25:58.823Z,4.192
2023-05-10T18:31:00.075Z,4.192
2023-05-10T18:36:01.814Z,4.192
2023-05-10T18:41:03.515Z,4.192
2023-05-10T18:46:05.114Z,4.192
2023-05-10T18:51:06.856Z,4.192
2023-05-10T18:56:08.808Z,4.192
2023-05-10T19:01:10.344Z,4.192
2023-05-10T19:06:12.114Z,4.192
2023-05-10T19:11:13.996Z,4.192
2023-05-10T19:16:15.319Z,4.192
2023-05-10T19:21:17.157Z,4.192
2023-05-10T19:26:18.503Z,4.192
2023-05-10T19:31:20.484Z,4.192
2023-05-10T19:36:22.042Z,4.192
2023-05-10T19:41:24.221Z,4.192
2023-05-10T19:46:25.435Z,4.192
2023-05-10T19:51:26.582Z,4.192
2023-05-10T19:56:28.116Z,4.192
2023-05-10T20:01:30.313Z,4.192
2023-05-10T20:06:31.745Z,4.192
2023-05-10T20:11:33.500Z,4.192
2023-05-10T20:16:35.191Z,4.192
2023-05-10T20:21:36.797Z,4.192
2023-05-10T20:26:38.541Z,4.192
2023-05-10T20:31:40.977Z,4.192
2023-05-10T20:36:41.481Z,4.192
2023-05-10T20:41:43.141Z,4.192
2023-05-10T20:46:44.623Z,4.192
2023-05-10T20:51:46.243Z,4.192
2023-05-10T20:56:48.247Z,4.192
2023-05-10T21:01:50.003Z,4.192
2023-05-10T21:06:53.307Z,4.192
2023-05-10T21:11:53.488Z,4.192
2023-05-10T21:16:55.290Z,4.192
2023-05-10T21:21:57.127Z,4.192
2023-05-10T21:26:58.340Z,4.192
2023-05-10T21:32:00.101Z,4.192
2023-05-10T21:37:01.554Z,4.192
2023-05-10T21:42:03.836Z,4.192
2023-05-10T21:47:05.264Z,4.192
2023-05-10T21:52:07.127Z,4.192
2023-05-10T21:57:09.022Z,4.192
2023-05-10T22:02:10.934Z,4.192
2023-05-10T22:07:12.199Z,4.192
2023-05-10T22:12:14.083Z,4.192
2023-05-10T22:17:16.215Z,4.192
2023-05-10T22:22:18.057Z,4.192
2023-05-10T22:27:19.737Z,4.192
2023-05-10T22:32:21.072Z,4.192
2023-05-10T22:37:22.515Z,4.192
2023-05-10T22:42:23.752Z,4.192
2023-05-10T22:47:25.737Z,4.192
2023-05-10T22:52:27.322Z,4.192
2023-05-10T22:57:29.249Z,4.192
2023-05-10T23:02:30.576Z,4.192
2023-05-10T23:07:32.157Z,4.192
2023-05-10T23:12:34.161Z,4.192
2023-05-10T23:17:35.925Z,4.192
2023-05-10T23:22:37.812Z,4.192
2023-05-10T23:27:39.349Z,4.192
2023-05-10T23:32:40.666Z,4.192
2023-05-10T23:37:41.970Z,4.192
2023-05-10T23:42:43.257Z,4.192
2023-05-10T23:47:45.439Z,4.192
2023-05-10T23:52:47.172Z,4.192
2023-05-10T23:57:48.646Z,4.192
